Terminal Aerodrome Forecast
Issued by NWS

Home | Current Version | Previous Version | Text Only | Print | Product List | Glossary On
Versions: 1 2 3 4 5 6 7 8 9 10 11 12 13 14 15 16 17 18
000
FTUS43 KJKL 301120
TAFSME
TAF
KSME 301120Z 3012/3112 16005KT P6SM BKN110
     FM301600 19013G24KT P6SM BKN200
     FM310000 18010KT P6SM OVC100
     FM310100 18009KT P6SM VCTS OVC070CB
     FM310300 19008KT 3SM -TSRA OVC035CB
     FM310600 21007KT 3SM SHRA OVC010=

USA.gov is the U.S. government's official web portal to all federal, state and local government web resources and services.